Time,TemperatureF,DewpointF,PressureIn,WindDirection,WindDirectionDegrees,WindSpeedMPH,WindSpeedGustMPH,Humidity,HourlyPrecipIn,Conditions,Clouds,dailyrainin,SoftwareType,DateUTC
2013-07-10 00:02:00,72.0,68.0,29.96,South,184,0.0,2.0,88,0.08,,,0.13,,2013-07-10 05:02:00,
2013-07-10 00:11:00,72.0,68.0,29.96,SSW,200,0.0,1.0,88,0.05,,,0.13,,2013-07-10 05:11:00,
2013-07-10 00:22:00,72.0,68.0,29.96,SSW,207,0.0,4.0,87,0.02,,,0.13,,2013-07-10 05:22:00,
2013-07-10 00:32:00,72.0,68.0,29.96,SSW,207,0.0,4.0,87,0.02,,,0.13,,2013-07-10 05:32:00,
2013-07-10 00:42:00,72.0,68.0,29.97,SSE,153,1.0,17.0,88,0.00,,,0.13,,2013-07-10 05:42:00,
2013-07-10 00:52:00,72.0,68.0,29.96,SE,139,12.0,18.0,87,0.00,,,0.13,,2013-07-10 05:52:00,
2013-07-10 01:01:00,72.0,68.0,29.96,SE,139,12.0,18.0,87,0.00,,,0.13,,2013-07-10 06:01:00,
2013-07-10 01:11:00,72.0,68.0,29.96,SE,140,4.0,14.0,87,0.00,,,0.13,,2013-07-10 06:11:00,
2013-07-10 01:21:00,72.0,68.0,29.96,SE,140,4.0,14.0,87,0.00,,,0.13,,2013-07-10 06:21:00,
2013-07-10 01:32:00,72.0,68.0,29.96,SE,140,4.0,14.0,87,0.00,,,0.13,,2013-07-10 06:32:00,
2013-07-10 01:42:00,72.0,68.0,29.96,SSE,159,6.0,10.0,87,0.00,,,0.13,,2013-07-10 06:42:00,
2013-07-10 01:52:00,72.0,68.0,29.95,SSE,154,2.0,6.0,87,0.00,,,0.13,,2013-07-10 06:52:00,
2013-07-10 02:01:00,72.0,68.0,29.95,SSE,154,2.0,6.0,87,0.00,,,0.13,,2013-07-10 07:01:00,
2013-07-10 02:11:00,71.0,67.0,29.95,SSE,154,0.0,0.0,87,0.00,,,0.13,,2013-07-10 07:11:00,
2013-07-10 02:22:00,70.0,66.0,29.95,SSE,153,0.0,0.0,88,0.00,,,0.13,,2013-07-10 07:22:00,
2013-07-10 02:33:00,70.0,66.0,29.95,SSE,153,0.0,0.0,88,0.00,,,0.13,,2013-07-10 07:33:00,
2013-07-10 02:43:00,70.0,67.0,29.96,SSE,153,0.0,0.0,89,0.00,,,0.13,,2013-07-10 07:43:00,
2013-07-10 02:53:00,70.0,67.0,29.96,SSE,153,0.0,0.0,90,0.00,,,0.13,,2013-07-10 07:53:00,
2013-07-10 03:01:00,70.0,67.0,29.96,SSE,153,0.0,0.0,90,0.00,,,0.13,,2013-07-10 08:01:00,
2013-07-10 03:11:00,70.0,67.0,29.96,SSE,153,0.0,0.0,91,0.00,,,0.13,,2013-07-10 08:11:00,
2013-07-10 03:22:00,70.0,67.0,29.96,SW,228,0.0,0.0,91,0.00,,,0.13,,2013-07-10 08:22:00,
2013-07-10 03:33:00,70.0,67.0,29.96,SW,228,0.0,0.0,91,0.00,,,0.13,,2013-07-10 08:33:00,
2013-07-10 03:42:00,70.0,67.0,29.97,SW,228,0.0,0.0,91,0.00,,,0.13,,2013-07-10 08:42:00,
2013-07-10 03:53:00,70.0,67.0,29.96,NW,324,0.0,0.0,91,0.00,,,0.13,,2013-07-10 08:53:00,
2013-07-10 04:02:00,70.0,67.0,29.96,NW,324,0.0,0.0,91,0.00,,,0.13,,2013-07-10 09:02:00,
2013-07-10 04:12:00,69.0,66.0,29.98,NW,324,0.0,0.0,91,0.00,,,0.13,,2013-07-10 09:12:00,
2013-07-10 04:22:00,69.0,67.0,29.98,NW,324,0.0,0.0,92,0.00,,,0.13,,2013-07-10 09:22:00,
2013-07-10 04:32:00,69.0,67.0,29.98,NW,324,0.0,0.0,92,0.00,,,0.13,,2013-07-10 09:32:00,
2013-07-10 04:42:00,69.0,67.0,29.99,NW,322,0.0,0.0,92,0.00,,,0.13,,2013-07-10 09:42:00,
2013-07-10 04:52:00,69.0,67.0,29.98,NW,323,0.0,0.0,92,0.00,,,0.13,,2013-07-10 09:52:00,
2013-07-10 05:01:00,69.0,67.0,29.98,NW,323,0.0,0.0,92,0.00,,,0.13,,2013-07-10 10:01:00,
2013-07-10 05:13:00,69.0,67.0,29.98,NW,322,0.0,0.0,92,0.00,,,0.13,,2013-07-10 10:13:00,
2013-07-10 05:23:00,69.0,67.0,29.99,NW,322,0.0,0.0,92,0.00,,,0.13,,2013-07-10 10:23:00,
2013-07-10 05:32:00,69.0,67.0,29.99,NW,322,0.0,0.0,92,0.00,,,0.13,,2013-07-10 10:32:00,
2013-07-10 05:50:00,-999.0,-99.9,29.99,NW,322,0.0,0.0,-999,-99.99,,,-99.99,,2013-07-10 10:50:00,
2013-07-10 06:00:00,-999.0,-99.9,29.99,WNW,302,0.0,0.0,-999,-99.99,,,-99.99,,2013-07-10 11:00:00,
2013-07-10 06:11:00,68.0,66.0,29.99,WNW,302,0.0,0.0,92,0.00,,,0.13,,2013-07-10 11:11:00,
2013-07-10 06:22:00,68.0,66.0,29.99,WNW,302,0.0,0.0,92,0.00,,,0.13,,2013-07-10 11:22:00,
2013-07-10 06:33:00,68.0,66.0,29.99,WNW,302,0.0,0.0,92,0.00,,,0.13,,2013-07-10 11:33:00,
2013-07-10 06:43:00,68.0,66.0,29.98,WNW,302,0.0,0.0,92,0.00,,,0.13,,2013-07-10 11:43:00,
2013-07-10 06:52:00,68.0,66.0,29.98,WNW,302,0.0,0.0,92,0.00,,,0.13,,2013-07-10 11:52:00,
2013-07-10 07:01:00,68.0,66.0,29.98,WNW,302,0.0,0.0,92,0.00,,,0.13,,2013-07-10 12:01:00,
2013-07-10 07:11:00,69.0,67.0,29.98,WNW,302,0.0,0.0,92,0.00,,,0.13,,2013-07-10 12:11:00,
2013-07-10 07:22:00,69.0,67.0,29.99,WNW,302,0.0,0.0,93,0.00,,,0.13,,2013-07-10 12:22:00,
2013-07-10 07:33:00,69.0,67.0,29.99,WNW,302,0.0,0.0,93,0.00,,,0.13,,2013-07-10 12:33:00,
2013-07-10 07:43:00,70.0,68.0,29.99,WNW,302,0.0,0.0,93,0.00,,,0.13,,2013-07-10 12:43:00,
2013-07-10 07:52:00,71.0,69.0,29.99,WNW,302,0.0,0.0,93,0.00,,,0.13,,2013-07-10 12:52:00,
2013-07-10 08:01:00,71.0,69.0,29.99,WNW,302,0.0,0.0,93,0.00,,,0.13,,2013-07-10 13:01:00,
2013-07-10 08:11:00,71.0,69.0,29.99,WNW,302,0.0,0.0,93,0.00,,,0.13,,2013-07-10 13:11:00,
2013-07-10 08:21:00,72.0,69.0,30.01,WNW,302,0.0,0.0,89,0.00,,,0.13,,2013-07-10 13:21:00,
2013-07-10 08:32:00,72.0,69.0,30.01,WNW,302,0.0,0.0,89,0.00,,,0.13,,2013-07-10 13:32:00,
2013-07-10 08:43:00,74.0,70.0,30.01,WNW,302,0.0,0.0,88,0.00,,,0.13,,2013-07-10 13:43:00,
2013-07-10 08:52:00,75.0,69.0,30.01,WNW,302,0.0,0.0,83,0.00,,,0.13,,2013-07-10 13:52:00,
2013-07-10 09:01:00,75.0,69.0,30.01,WNW,302,0.0,0.0,83,0.00,,,0.13,,2013-07-10 14:01:00,
2013-07-10 09:11:00,77.0,71.0,30.01,WNW,302,0.0,0.0,81,0.00,,,0.13,,2013-07-10 14:11:00,
2013-07-10 09:22:00,79.0,72.0,30.02,NNW,347,0.0,1.0,80,0.00,,,0.13,,2013-07-10 14:22:00,
2013-07-10 09:33:00,79.0,72.0,30.02,NNW,347,0.0,1.0,80,0.00,,,0.13,,2013-07-10 14:33:00,
2013-07-10 09:43:00,80.0,73.0,30.01,NNE,21,0.0,2.0,79,0.00,,,0.13,,2013-07-10 14:43:00,
2013-07-10 09:53:00,82.0,74.0,30.02,North,360,0.0,2.0,78,0.00,,,0.13,,2013-07-10 14:53:00,
2013-07-10 10:01:00,82.0,74.0,30.02,North,360,0.0,2.0,78,0.00,,,0.13,,2013-07-10 15:01:00,
2013-07-10 10:11:00,83.0,74.0,30.01,ESE,104,0.0,4.0,75,0.00,,,0.13,,2013-07-10 15:11:00,
2013-07-10 10:22:00,85.0,75.0,30.01,NNW,329,0.0,3.0,73,0.00,,,0.13,,2013-07-10 15:22:00,
2013-07-10 10:34:00,85.0,75.0,30.01,NNW,329,0.0,3.0,73,0.00,,,0.13,,2013-07-10 15:34:00,
2013-07-10 10:42:00,86.0,75.0,30.01,South,188,0.0,3.0,69,0.00,,,0.13,,2013-07-10 15:42:00,
2013-07-10 10:52:00,86.0,74.0,30.01,ESE,115,1.0,6.0,68,0.00,,,0.13,,2013-07-10 15:52:00,
2013-07-10 11:01:00,86.0,74.0,30.01,ESE,115,1.0,6.0,68,0.00,,,0.13,,2013-07-10 16:01:00,
2013-07-10 11:11:00,87.0,73.0,30.02,SSE,163,1.0,7.0,64,0.00,,,0.13,,2013-07-10 16:11:00,
2013-07-10 11:22:00,88.0,73.0,30.02,NE,34,0.0,3.0,62,0.00,,,0.13,,2013-07-10 16:22:00,
2013-07-10 11:33:00,88.0,73.0,30.02,NE,34,0.0,3.0,62,0.00,,,0.13,,2013-07-10 16:33:00,
2013-07-10 11:44:00,88.0,74.0,30.03,East,92,0.0,5.0,64,0.00,,,0.13,,2013-07-10 16:44:00,
2013-07-10 11:53:00,89.0,74.0,30.02,ENE,65,0.0,5.0,61,0.00,,,0.13,,2013-07-10 16:53:00,
2013-07-10 12:02:00,89.0,74.0,30.02,ENE,65,0.0,5.0,61,0.00,,,0.13,,2013-07-10 17:02:00,
2013-07-10 12:11:00,89.0,73.0,30.03,ENE,57,2.0,9.0,60,0.00,,,0.13,,2013-07-10 17:11:00,
2013-07-10 12:23:00,90.0,73.0,30.02,SSE,152,3.0,11.0,58,0.00,,,0.13,,2013-07-10 17:23:00,
2013-07-10 12:32:00,90.0,73.0,30.02,SSE,152,3.0,11.0,58,0.00,,,0.13,,2013-07-10 17:32:00,
2013-07-10 12:43:00,91.0,73.0,30.02,ENE,71,1.0,6.0,56,0.00,,,0.13,,2013-07-10 17:43:00,
2013-07-10 12:52:00,92.0,76.0,30.02,ESE,121,0.0,3.0,59,0.00,,,0.13,,2013-07-10 17:52:00,
2013-07-10 13:02:00,92.0,76.0,30.02,ESE,121,0.0,3.0,59,0.00,,,0.13,,2013-07-10 18:02:00,
2013-07-10 13:11:00,92.0,73.0,30.02,ENE,60,2.0,7.0,54,0.00,,,0.13,,2013-07-10 18:11:00,
2013-07-10 13:21:00,92.0,74.0,30.02,SE,126,1.0,7.0,56,0.00,,,0.13,,2013-07-10 18:21:00,
2013-07-10 13:32:00,92.0,74.0,30.02,SE,126,1.0,7.0,56,0.00,,,0.13,,2013-07-10 18:32:00,
2013-07-10 13:44:00,92.0,75.0,30.01,ENE,72,3.0,11.0,57,0.00,,,0.13,,2013-07-10 18:44:00,
2013-07-10 13:52:00,93.0,75.0,30.01,NNW,342,2.0,8.0,56,0.00,,,0.13,,2013-07-10 18:52:00,
2013-07-10 14:01:00,93.0,75.0,30.01,NNW,342,2.0,8.0,56,0.00,,,0.13,,2013-07-10 19:01:00,
2013-07-10 14:11:00,93.0,75.0,30.01,ENE,69,0.0,6.0,57,0.00,,,0.13,,2013-07-10 19:11:00,
2013-07-10 14:21:00,94.0,75.0,30.01,ESE,119,2.0,5.0,54,0.00,,,0.13,,2013-07-10 19:21:00,
2013-07-10 14:32:00,94.0,75.0,30.01,ESE,119,2.0,5.0,54,0.00,,,0.13,,2013-07-10 19:32:00,
2013-07-10 14:42:00,95.0,75.0,30.01,ENE,65,3.0,7.0,52,0.00,,,0.13,,2013-07-10 19:42:00,
2013-07-10 14:52:00,94.0,75.0,30.01,East,81,4.0,7.0,54,0.00,,,0.13,,2013-07-10 19:52:00,
2013-07-10 15:01:00,94.0,75.0,30.01,East,81,4.0,7.0,54,0.00,,,0.13,,2013-07-10 20:01:00,
2013-07-10 15:11:00,95.0,75.0,30.00,SSE,168,3.0,13.0,52,0.00,,,0.13,,2013-07-10 20:11:00,
2013-07-10 15:22:00,95.0,75.0,30.00,SE,127,2.0,10.0,52,0.00,,,0.13,,2013-07-10 20:22:00,
2013-07-10 15:32:00,95.0,75.0,30.00,SE,127,2.0,10.0,52,0.00,,,0.13,,2013-07-10 20:32:00,
2013-07-10 15:43:00,95.0,73.0,30.00,SSW,192,1.0,11.0,50,0.00,,,0.13,,2013-07-10 20:43:00,
2013-07-10 15:52:00,95.0,76.0,30.00,NE,53,3.0,7.0,54,0.00,,,0.13,,2013-07-10 20:52:00,
2013-07-10 16:01:00,95.0,76.0,30.00,NE,53,3.0,7.0,54,0.00,,,0.13,,2013-07-10 21:01:00,
2013-07-10 16:11:00,95.0,75.0,29.99,SE,137,3.0,9.0,52,0.00,,,0.13,,2013-07-10 21:11:00,
2013-07-10 16:22:00,96.0,75.0,29.99,NE,51,2.0,12.0,52,0.00,,,0.13,,2013-07-10 21:22:00,
2013-07-10 16:32:00,96.0,75.0,29.99,NE,51,2.0,12.0,52,0.00,,,0.13,,2013-07-10 21:32:00,
2013-07-10 16:41:00,95.0,74.0,29.99,SSE,157,1.0,6.0,51,0.00,,,0.13,,2013-07-10 21:41:00,
2013-07-10 16:52:00,95.0,75.0,29.98,ESE,110,1.0,8.0,52,0.00,,,0.13,,2013-07-10 21:52:00,
2013-07-10 17:01:00,95.0,75.0,29.98,ESE,110,1.0,8.0,52,0.00,,,0.13,,2013-07-10 22:01:00,
2013-07-10 17:11:00,95.0,75.0,29.97,East,82,2.0,7.0,52,0.00,,,0.13,,2013-07-10 22:11:00,
2013-07-10 17:21:00,95.0,75.0,29.97,ESE,119,1.0,8.0,52,0.00,,,0.13,,2013-07-10 22:21:00,
2013-07-10 17:33:00,95.0,75.0,29.97,ESE,119,1.0,8.0,52,0.00,,,0.13,,2013-07-10 22:33:00,
2013-07-10 17:42:00,95.0,73.0,29.96,SSE,147,2.0,6.0,50,0.00,,,0.13,,2013-07-10 22:42:00,
2013-07-10 17:53:00,95.0,74.0,29.96,NE,42,2.0,8.0,51,0.00,,,0.13,,2013-07-10 22:53:00,
2013-07-10 18:01:00,95.0,74.0,29.96,NE,42,2.0,8.0,51,0.00,,,0.13,,2013-07-10 23:01:00,
2013-07-10 18:11:00,95.0,74.0,29.95,East,82,0.0,7.0,51,0.00,,,0.13,,2013-07-10 23:11:00,
2013-07-10 18:22:00,94.0,72.0,29.95,SSE,165,2.0,10.0,50,0.00,,,0.13,,2013-07-10 23:22:00,
2013-07-10 18:32:00,94.0,72.0,29.95,SSE,165,2.0,10.0,50,0.00,,,0.13,,2013-07-10 23:32:00,
2013-07-10 18:43:00,94.0,72.0,29.95,SSE,165,2.0,10.0,50,0.00,,,0.13,,2013-07-10 23:43:00,
2013-07-10 18:52:00,93.0,70.0,29.96,ESE,103,2.0,9.0,47,0.00,,,0.13,,2013-07-10 23:52:00,
2013-07-10 19:01:00,93.0,70.0,29.96,ESE,103,2.0,9.0,47,0.00,,,0.13,,2013-07-11 00:01:00,
2013-07-10 19:11:00,92.0,69.0,29.96,East,92,1.0,9.0,48,0.00,,,0.13,,2013-07-11 00:11:00,
2013-07-10 19:22:00,92.0,69.0,29.97,SE,146,0.0,6.0,48,0.00,,,0.13,,2013-07-11 00:22:00,
2013-07-10 19:32:00,92.0,69.0,29.97,SE,146,0.0,6.0,48,0.00,,,0.13,,2013-07-11 00:32:00,
2013-07-10 19:42:00,92.0,68.0,29.97,SSE,159,1.0,6.0,46,0.00,,,0.13,,2013-07-11 00:42:00,
2013-07-10 19:52:00,92.0,68.0,29.97,SSE,159,1.0,6.0,46,0.00,,,0.13,,2013-07-11 00:52:00,
2013-07-10 20:01:00,91.0,68.0,29.97,ENE,67,0.0,5.0,47,0.00,,,0.13,,2013-07-11 01:01:00,
2013-07-10 20:11:00,91.0,68.0,29.97,ENE,67,0.0,5.0,47,0.00,,,0.13,,2013-07-11 01:11:00,
2013-07-10 20:22:00,90.0,68.0,29.96,NE,35,0.0,3.0,48,0.00,,,0.13,,2013-07-11 01:22:00,
2013-07-10 20:32:00,90.0,68.0,29.96,NE,35,0.0,3.0,48,0.00,,,0.13,,2013-07-11 01:32:00,
2013-07-10 20:43:00,87.0,67.0,29.95,SSE,157,1.0,4.0,51,0.00,,,0.13,,2013-07-11 01:43:00,
2013-07-10 20:52:00,84.0,66.0,29.96,SE,128,0.0,0.0,54,0.00,,,0.13,,2013-07-11 01:52:00,
2013-07-10 21:02:00,84.0,66.0,29.96,SE,128,0.0,0.0,54,0.00,,,0.13,,2013-07-11 02:02:00,
2013-07-10 21:11:00,83.0,65.0,29.97,ESE,123,0.0,0.0,55,0.00,,,0.13,,2013-07-11 02:11:00,
2013-07-10 21:32:00,82.0,65.0,29.97,ESE,119,0.0,0.0,57,0.00,,,0.13,,2013-07-11 02:32:00,
2013-07-10 21:43:00,81.0,65.0,29.97,SE,137,1.0,4.0,59,0.00,,,0.13,,2013-07-11 02:43:00,
2013-07-10 21:53:00,81.0,65.0,29.96,SE,126,2.0,7.0,58,0.00,,,0.13,,2013-07-11 02:53:00,
2013-07-10 22:01:00,81.0,65.0,29.96,SE,126,2.0,7.0,58,0.00,,,0.13,,2013-07-11 03:01:00,
2013-07-10 22:11:00,81.0,65.0,29.97,SE,125,4.0,9.0,58,0.00,,,0.13,,2013-07-11 03:11:00,
2013-07-10 22:21:00,80.0,63.0,29.97,East,101,4.0,7.0,57,0.00,,,0.13,,2013-07-11 03:21:00,
2013-07-10 22:33:00,80.0,63.0,29.97,East,101,4.0,7.0,57,0.00,,,0.13,,2013-07-11 03:33:00,
2013-07-10 22:42:00,80.0,63.0,29.98,SE,132,3.0,9.0,57,0.00,,,0.12,,2013-07-11 03:42:00,
2013-07-10 22:52:00,80.0,63.0,29.98,ESE,103,6.0,10.0,57,0.00,,,0.12,,2013-07-11 03:52:00,
2013-07-10 23:01:00,80.0,63.0,29.98,ESE,103,6.0,10.0,57,0.00,,,0.12,,2013-07-11 04:01:00,
2013-07-10 23:12:00,79.0,62.0,29.98,SE,136,10.0,12.0,56,0.00,,,0.12,,2013-07-11 04:12:00,
2013-07-10 23:22:00,80.0,62.0,29.98,SE,128,10.0,14.0,54,0.00,,,0.12,,2013-07-11 04:22:00,
2013-07-10 23:32:00,80.0,62.0,29.98,SE,128,10.0,14.0,54,0.00,,,0.12,,2013-07-11 04:32:00,
2013-07-10 23:42:00,80.0,62.0,29.99,SE,137,11.0,16.0,54,0.00,,,0.02,,2013-07-11 04:42:00,
2013-07-10 23:53:00,79.0,61.0,30.00,SE,134,8.0,12.0,55,0.00,,,0.02,,2013-07-11 04:53:00,